createdAt,value
2022-11-01T00:00:38.900Z,66.20
2022-11-01T00:03:09.097Z,64.57
2022-11-01T00:05:37.975Z,67.07
2022-11-01T00:08:07.227Z,63.90
2022-11-01T00:10:36.063Z,58.83
2022-11-01T00:13:04.980Z,70.90
2022-11-01T00:15:33.775Z,62.63
2022-11-01T00:18:02.602Z,60.87
2022-11-01T00:20:32.999Z,54.40
2022-11-01T00:23:02.037Z,79.00
2022-11-01T00:25:31.123Z,64.20
2022-11-01T00:28:00.107Z,65.20
2022-11-01T00:30:29.271Z,68.00
2022-11-01T00:32:59.285Z,67.97
2022-11-01T00:35:28.046Z,65.87
2022-11-01T00:37:59.610Z,75.53
2022-11-01T00:40:29.083Z,77.00
2022-11-01T00:42:57.866Z,67.47
2022-11-01T00:45:26.779Z,60.43
2022-11-01T00:47:55.655Z,49.70
2022-11-01T00:50:24.617Z,47.60
2022-11-01T00:52:53.527Z,63.73
2022-11-01T00:55:23.680Z,54.00
2022-11-01T00:57:52.442Z,63.87
2022-11-01T01:00:21.568Z,54.50
2022-11-01T01:02:50.407Z,59.70
2022-11-01T01:05:20.036Z,56.50
2022-11-01T01:07:48.943Z,63.67
2022-11-01T01:10:17.899Z,57.60
2022-11-01T01:12:48.047Z,54.03
2022-11-01T01:15:16.975Z,58.97
2022-11-01T01:17:45.749Z,53.23
2022-11-01T01:20:15.221Z,54.17
2022-11-01T01:22:44.012Z,66.23
2022-11-01T01:25:13.122Z,56.47
2022-11-01T01:27:41.952Z,68.33
2022-11-01T01:30:13.365Z,63.87
2022-11-01T01:32:42.546Z,62.60
2022-11-01T01:35:12.064Z,56.90
2022-11-01T01:37:41.028Z,57.57
2022-11-01T01:40:11.050Z,52.23
2022-11-01T01:42:42.338Z,62.93
2022-11-01T01:45:36.382Z,64.23
2022-11-01T01:48:14.301Z,53.00
2022-11-01T01:50:50.359Z,55.63
2022-11-01T01:53:26.224Z,55.70
2022-11-01T01:56:02.343Z,52.73
2022-11-01T01:58:36.799Z,49.90
2022-11-01T02:01:07.387Z,53.80
2022-11-01T02:03:39.596Z,55.50
2022-11-01T02:06:12.420Z,50.53
2022-11-01T02:08:48.026Z,48.63
2022-11-01T02:11:20.165Z,47.80
2022-11-01T02:13:49.660Z,50.33
2022-11-01T02:16:55.772Z,53.63
2022-11-01T02:20:05.934Z,54.13
2022-11-01T02:23:19.346Z,60.97
2022-11-01T02:26:10.997Z,57.33
2022-11-01T02:29:05.817Z,53.33
2022-11-01T02:32:08.471Z,55.83
2022-11-01T02:34:47.604Z,53.33
2022-11-01T02:37:27.297Z,58.30
2022-11-01T02:40:03.822Z,49.60
2022-11-01T02:42:39.909Z,63.03
2022-11-01T02:45:29.006Z,55.70
2022-11-01T02:48:01.753Z,59.80
2022-11-01T02:50:38.367Z,61.37
2022-11-01T02:53:07.905Z,55.90
2022-11-01T02:55:37.098Z,52.83
2022-11-01T02:58:08.456Z,60.17
2022-11-01T03:00:38.538Z,48.93
2022-11-01T03:03:19.540Z,61.23
2022-11-01T03:06:03.870Z,54.67
2022-11-01T03:08:39.863Z,64.17
2022-11-01T03:11:13.681Z,54.00
2022-11-01T03:14:00.803Z,61.77
2022-11-01T03:16:37.844Z,62.27
2022-11-01T03:19:30.038Z,59.23
2022-11-01T03:22:08.879Z,54.87
2022-11-01T03:24:46.730Z,60.43
2022-11-01T03:27:29.274Z,60.43
2022-11-01T03:30:04.201Z,55.57
2022-11-01T03:32:40.151Z,51.20
2022-11-01T03:35:18.953Z,54.87
2022-11-01T03:37:52.119Z,48.47
2022-11-01T03:40:22.339Z,57.67
2022-11-01T03:42:56.030Z,58.73
2022-11-01T03:45:28.428Z,56.93
2022-11-01T03:47:57.455Z,54.83
2022-11-01T03:50:30.165Z,49.67
2022-11-01T03:52:59.567Z,45.97
2022-11-01T03:55:28.477Z,57.50
2022-11-01T03:57:59.738Z,57.07
2022-11-01T04:00:31.582Z,50.00
2022-11-01T04:03:02.639Z,45.13
2022-11-01T04:05:35.263Z,47.57
2022-11-01T04:08:04.916Z,49.30
2022-11-01T04:10:34.245Z,53.40
2022-11-01T04:13:03.999Z,46.77
2022-11-01T04:15:50.276Z,48.40
2022-11-01T04:21:17.690Z,42.80
2022-11-01T04:23:48.021Z,41.43
2022-11-01T04:26:20.172Z,46.63
2022-11-01T04:28:57.286Z,50.67
2022-11-01T04:31:30.074Z,53.93
2022-11-01T04:34:00.398Z,52.37
2022-11-01T04:36:30.639Z,46.00
2022-11-01T04:39:00.164Z,45.60
2022-11-01T04:41:30.808Z,47.77
2022-11-01T04:44:00.672Z,44.80
2022-11-01T04:46:32.380Z,45.40
2022-11-01T04:49:01.183Z,43.60
2022-11-01T04:51:31.390Z,47.37
2022-11-01T04:54:00.230Z,47.40
2022-11-01T04:56:29.046Z,46.57
2022-11-01T04:58:59.366Z,46.53
2022-11-01T05:01:28.243Z,44.73
2022-11-01T05:03:57.205Z,45.37
2022-11-01T05:06:26.018Z,40.93
2022-11-01T05:08:57.638Z,49.17
2022-11-01T05:11:26.541Z,47.80
2022-11-01T05:13:55.362Z,41.47
2022-11-01T05:16:24.124Z,49.83
2022-11-01T05:18:52.954Z,58.10
2022-11-01T05:21:21.953Z,60.07
2022-11-01T05:23:52.107Z,48.50
2022-11-01T05:26:22.257Z,51.77
2022-11-01T05:28:50.980Z,49.53
2022-11-01T05:31:19.826Z,51.33
2022-11-01T05:33:48.735Z,46.77
2022-11-01T05:36:17.415Z,48.53
2022-11-01T05:38:46.116Z,50.70
2022-11-01T05:41:14.831Z,69.23
2022-11-01T05:43:45.007Z,45.83
2022-11-01T05:46:13.837Z,52.80
2022-11-01T05:48:43.580Z,47.60
2022-11-01T05:51:12.792Z,54.03
2022-11-01T05:53:41.534Z,43.30
2022-11-01T05:56:10.411Z,49.03
2022-11-01T05:58:39.140Z,43.37
2022-11-01T06:01:10.222Z,48.53
2022-11-01T06:03:39.155Z,44.97
2022-11-01T06:06:08.445Z,48.33
2022-11-01T06:08:37.264Z,48.60
2022-11-01T06:11:07.649Z,53.30
2022-11-01T06:13:36.518Z,47.63
2022-11-01T06:16:09.271Z,41.23
2022-11-01T06:18:38.039Z,46.90
2022-11-01T06:21:07.313Z,45.47
2022-11-01T06:23:36.084Z,48.00
2022-11-01T06:26:07.431Z,48.70
2022-11-01T06:28:36.791Z,39.40
2022-11-01T06:33:41.449Z,46.37
2022-11-01T06:36:10.688Z,40.93
2022-11-01T06:38:39.389Z,34.33
2022-11-01T06:41:08.680Z,48.90
2022-11-01T06:43:37.494Z,38.97
2022-11-01T06:46:06.531Z,41.50
2022-11-01T06:48:35.829Z,38.43
2022-11-01T06:51:06.919Z,46.27
2022-11-01T06:53:35.752Z,39.77
2022-11-01T06:56:04.565Z,47.50
2022-11-01T06:58:33.385Z,38.03
2022-11-01T07:01:03.429Z,43.47
2022-11-01T07:03:32.401Z,39.73
2022-11-01T07:06:02.083Z,36.50
2022-11-01T07:08:32.394Z,37.40
2022-11-01T07:11:01.101Z,42.03
2022-11-01T07:13:33.899Z,41.73
2022-11-01T07:16:04.270Z,38.63
2022-11-01T07:18:34.584Z,40.70
2022-11-01T07:21:05.196Z,39.67
2022-11-01T07:23:35.432Z,37.80
2022-11-01T07:26:04.520Z,33.30
2022-11-01T07:28:33.469Z,37.67
2022-11-01T07:31:02.531Z,31.13
2022-11-01T07:33:31.275Z,41.53
2022-11-01T07:36:00.046Z,29.87
2022-11-01T07:38:29.442Z,33.83
2022-11-01T07:40:59.686Z,33.47
2022-11-01T07:43:28.415Z,35.43
2022-11-01T07:46:01.239Z,32.90
2022-11-01T07:48:29.993Z,29.70
2022-11-01T07:50:58.933Z,35.67
2022-11-01T07:53:28.061Z,31.67
2022-11-01T07:55:58.229Z,29.77
2022-11-01T07:58:27.023Z,34.63
2022-11-01T08:00:55.850Z,29.07
2022-11-01T08:03:25.007Z,33.03
2022-11-01T08:05:54.859Z,30.77
2022-11-01T08:08:23.783Z,33.83
2022-11-01T08:10:52.603Z,26.30
2022-11-01T08:13:25.019Z,30.77
2022-11-01T08:15:55.234Z,29.13
2022-11-01T08:18:25.518Z,29.13
2022-11-01T08:20:54.631Z,26.80
2022-11-01T08:23:23.487Z,25.07
2022-11-01T08:25:52.256Z,30.80
2022-11-01T08:28:23.862Z,26.40
2022-11-01T08:30:52.891Z,29.40
2022-11-01T08:33:21.546Z,23.83
2022-11-01T08:35:50.976Z,27.43
2022-11-01T08:38:20.553Z,28.30
2022-11-01T08:40:49.544Z,26.60
2022-11-01T08:43:18.720Z,29.30
2022-11-01T08:45:49.582Z,31.90
2022-11-01T08:48:18.525Z,33.10
2022-11-01T08:50:47.323Z,30.93
2022-11-01T08:53:16.810Z,28.90
2022-11-01T08:55:45.714Z,29.57
2022-11-01T08:58:14.552Z,26.00
2022-11-01T09:00:45.112Z,31.53
2022-11-01T09:03:15.978Z,25.70
2022-11-01T09:05:44.750Z,24.83
2022-11-01T09:08:13.601Z,33.23
2022-11-01T09:10:42.346Z,29.70
2022-11-01T09:13:11.095Z,22.80
2022-11-01T09:15:40.728Z,22.80
2022-11-01T09:18:09.792Z,19.80
2022-11-01T09:20:39.951Z,21.80
2022-11-01T09:23:08.819Z,20.23
2022-11-01T09:25:38.018Z,20.10
2022-11-01T09:28:06.873Z,23.37
2022-11-01T09:30:36.996Z,28.37
2022-11-01T09:33:08.498Z,24.30
2022-11-01T09:35:37.792Z,27.03
2022-11-01T09:38:08.046Z,24.17
2022-11-01T09:40:45.475Z,30.70
2022-11-01T09:43:22.328Z,31.80
2022-11-01T09:45:54.991Z,27.47
2022-11-01T09:48:25.638Z,22.83
2022-11-01T09:50:55.171Z,31.20
2022-11-01T09:53:30.453Z,28.23
2022-11-01T09:56:10.448Z,18.37
2022-11-01T09:58:59.051Z,28.33
2022-11-01T10:01:43.256Z,19.53
2022-11-01T10:04:54.448Z,27.13
2022-11-01T10:07:37.503Z,18.17
2022-11-01T10:10:31.131Z,22.67
2022-11-01T10:13:27.805Z,27.53
2022-11-01T10:16:09.278Z,19.47
2022-11-01T10:18:50.859Z,18.33
2022-11-01T10:21:25.841Z,29.70
2022-11-01T10:24:03.302Z,22.50
2022-11-01T10:26:34.326Z,20.97
2022-11-01T10:29:15.018Z,22.30
2022-11-01T10:31:49.745Z,26.43
2022-11-01T10:34:26.977Z,22.97
2022-11-01T10:37:13.021Z,16.37
2022-11-01T10:39:57.014Z,22.53
2022-11-01T10:42:31.067Z,24.13
2022-11-01T10:45:07.483Z,21.00
2022-11-01T10:47:36.925Z,20.70
2022-11-01T10:50:19.095Z,15.73
2022-11-01T10:52:54.484Z,17.10
2022-11-01T10:55:31.604Z,20.80
2022-11-01T10:58:07.082Z,20.80
2022-11-01T11:00:42.529Z,23.77
2022-11-01T11:03:22.569Z,22.27
2022-11-01T11:05:53.952Z,19.33
2022-11-01T11:08:25.765Z,24.67
2022-11-01T11:10:57.247Z,24.73
2022-11-01T11:13:28.842Z,27.53
2022-11-01T11:16:02.361Z,20.03
2022-11-01T11:18:38.557Z,25.87
2022-11-01T11:21:11.829Z,17.93
2022-11-01T11:23:46.077Z,17.97
2022-11-01T11:26:19.953Z,19.77
2022-11-01T11:28:55.719Z,23.03
2022-11-01T11:31:30.211Z,14.10
2022-11-01T11:34:05.944Z,23.30
2022-11-01T11:36:41.956Z,15.63
2022-11-01T11:39:27.127Z,19.17
2022-11-01T11:41:56.529Z,13.40
2022-11-01T11:44:55.506Z,17.03
2022-11-01T11:47:28.343Z,15.27
2022-11-01T11:50:00.652Z,17.97
2022-11-01T11:52:38.601Z,15.23
2022-11-01T11:55:35.898Z,13.37
2022-11-01T11:58:07.436Z,11.53
2022-11-01T12:00:39.763Z,13.13
2022-11-01T12:03:14.579Z,12.90
2022-11-01T12:05:55.459Z,15.10
2022-11-01T12:08:46.823Z,19.10
2022-11-01T12:11:16.593Z,13.90
2022-11-01T12:13:47.891Z,9.80
2022-11-01T12:16:25.726Z,13.07
2022-11-01T12:18:57.719Z,12.93
2022-11-01T12:21:31.057Z,12.27
2022-11-01T12:24:07.487Z,15.07
2022-11-01T12:26:38.510Z,9.93
2022-11-01T12:29:21.943Z,15.90
2022-11-01T12:31:56.954Z,11.33
2022-11-01T12:34:35.066Z,12.10
2022-11-01T12:37:24.640Z,10.70
2022-11-01T12:40:00.365Z,12.93
2022-11-01T12:42:35.814Z,14.47
2022-11-01T12:45:17.110Z,9.37
2022-11-01T12:47:54.592Z,14.43
2022-11-01T12:50:30.289Z,12.20
2022-11-01T12:53:06.373Z,11.23
2022-11-01T12:55:39.255Z,19.23
2022-11-01T12:58:16.056Z,15.20
2022-11-01T13:01:13.278Z,18.53
2022-11-01T13:03:57.135Z,19.23
2022-11-01T13:06:56.929Z,28.00
2022-11-01T13:09:39.188Z,15.30
2022-11-01T13:12:20.216Z,15.43
2022-11-01T13:15:07.251Z,10.33
2022-11-01T13:17:46.790Z,15.30
2022-11-01T13:20:41.025Z,13.60
2022-11-01T13:23:24.672Z,14.07
2022-11-01T13:26:02.824Z,11.90
2022-11-01T13:29:03.641Z,12.87
2022-11-01T13:31:48.454Z,18.13
2022-11-01T13:34:38.665Z,14.37
2022-11-01T13:37:24.735Z,12.50
2022-11-01T13:40:15.725Z,13.80
2022-11-01T13:42:53.331Z,14.23
2022-11-01T13:46:13.311Z,13.77
2022-11-01T13:49:18.190Z,11.17
2022-11-01T13:51:56.818Z,14.13
2022-11-01T13:54:37.247Z,14.23
2022-11-01T13:57:16.327Z,13.97
2022-11-01T13:59:55.522Z,14.73
2022-11-01T14:02:57.314Z,10.97
2022-11-01T14:05:39.589Z,11.73
2022-11-01T14:08:28.986Z,13.27
2022-11-01T14:11:03.255Z,11.60
2022-11-01T14:13:36.897Z,10.63
2022-11-01T14:16:22.707Z,14.50
2022-11-01T14:19:21.766Z,12.03
2022-11-01T14:21:55.091Z,9.13
2022-11-01T14:24:35.264Z,11.40
2022-11-01T14:27:36.189Z,15.13
2022-11-01T14:30:15.818Z,11.33
2022-11-01T14:32:52.484Z,9.00
2022-11-01T14:35:30.670Z,9.93
2022-11-01T14:38:05.625Z,14.93
2022-11-01T14:40:41.688Z,14.13
2022-11-01T14:43:22.062Z,11.33
2022-11-01T14:45:57.837Z,10.93
2022-11-01T14:48:35.305Z,11.03
2022-11-01T14:51:16.122Z,11.17
2022-11-01T14:53:48.760Z,16.90
2022-11-01T14:56:20.388Z,18.40
2022-11-01T14:58:50.905Z,14.07
2022-11-01T15:01:23.608Z,13.97
2022-11-01T15:03:58.886Z,11.30
2022-11-01T15:06:30.523Z,16.40
2022-11-01T15:09:01.014Z,18.60
2022-11-01T15:11:32.124Z,13.10
2022-11-01T15:14:07.398Z,16.37
2022-11-01T15:16:37.652Z,15.60
2022-11-01T15:19:16.118Z,13.13
2022-11-01T15:21:47.592Z,18.07
2022-11-01T15:24:25.901Z,11.73
2022-11-01T15:26:55.693Z,14.57
2022-11-01T15:29:26.674Z,14.00
2022-11-01T15:32:00.201Z,12.53
2022-11-01T15:34:32.503Z,12.40
2022-11-01T15:37:17.825Z,10.23
2022-11-01T15:39:46.683Z,11.47
2022-11-01T15:42:16.531Z,14.37
2022-11-01T15:44:46.930Z,16.40
2022-11-01T15:47:21.139Z,18.37
2022-11-01T15:49:55.960Z,12.20
2022-11-01T15:52:30.320Z,14.20
2022-11-01T15:55:05.290Z,12.07
2022-11-01T15:57:42.441Z,10.53
2022-11-01T16:00:21.049Z,14.40
2022-11-01T16:03:02.019Z,14.90
2022-11-01T16:05:38.121Z,11.60
2022-11-01T16:08:10.427Z,16.37
2022-11-01T16:10:39.280Z,14.63
2022-11-01T16:13:08.082Z,16.10
2022-11-01T16:15:38.205Z,19.93
2022-11-01T16:18:18.174Z,14.17
2022-11-01T16:20:48.061Z,18.67
2022-11-01T16:23:29.583Z,16.10
2022-11-01T16:26:09.045Z,20.00
2022-11-01T16:28:43.796Z,14.70
2022-11-01T16:31:26.989Z,18.27
2022-11-01T16:33:56.845Z,14.73
2022-11-01T16:36:37.459Z,15.10
2022-11-01T16:39:27.643Z,25.97
2022-11-01T16:41:57.028Z,20.33
2022-11-01T16:44:26.311Z,21.37
2022-11-01T16:46:57.454Z,17.07
2022-11-01T16:49:29.674Z,12.63
2022-11-01T16:51:58.569Z,13.33
2022-11-01T16:54:28.503Z,14.20
2022-11-01T16:56:59.551Z,14.50
2022-11-01T16:59:36.844Z,16.47
2022-11-01T17:02:18.875Z,17.67
2022-11-01T17:04:51.801Z,14.00
2022-11-01T17:07:20.792Z,14.87
2022-11-01T17:09:49.751Z,11.00
2022-11-01T17:12:18.496Z,11.30
2022-11-01T17:14:47.487Z,16.80
2022-11-01T17:17:24.872Z,10.60
2022-11-01T17:20:04.153Z,10.23
2022-11-01T17:22:37.623Z,15.17
2022-11-01T17:25:08.230Z,11.87
2022-11-01T17:27:37.114Z,11.67
2022-11-01T17:30:06.805Z,14.40
2022-11-01T17:32:37.035Z,16.17
2022-11-01T17:35:07.192Z,11.30
2022-11-01T17:37:36.881Z,17.63
2022-11-01T17:40:16.811Z,13.03
2022-11-01T17:42:45.942Z,12.67
2022-11-01T17:45:15.644Z,11.20
2022-11-01T17:47:46.291Z,10.70
2022-11-01T17:50:18.119Z,16.20
2022-11-01T17:52:47.380Z,13.40
2022-11-01T17:55:16.949Z,17.40
2022-11-01T17:57:45.838Z,14.83
2022-11-01T18:00:15.589Z,13.50
2022-11-01T18:02:46.973Z,8.67
2022-11-01T18:05:15.897Z,9.93
2022-11-01T18:07:48.860Z,10.27
2022-11-01T18:10:21.946Z,12.70
2022-11-01T18:13:17.977Z,9.70
2022-11-01T18:15:56.038Z,15.27
2022-11-01T18:18:53.832Z,12.63
2022-11-01T18:21:33.037Z,21.20
2022-11-01T18:24:13.565Z,12.60
2022-11-01T18:26:46.124Z,14.20
2022-11-01T18:29:21.480Z,12.93
2022-11-01T18:32:06.403Z,12.47
2022-11-01T18:34:48.154Z,15.13
2022-11-01T18:37:29.735Z,13.33
2022-11-01T18:40:11.533Z,14.90
2022-11-01T18:42:40.830Z,16.57
2022-11-01T18:45:26.853Z,13.50
2022-11-01T18:48:06.809Z,9.83
2022-11-01T18:50:38.644Z,12.50
2022-11-01T18:53:14.590Z,13.80
2022-11-01T18:55:44.683Z,12.70
2022-11-01T18:58:20.057Z,14.50
2022-11-01T19:01:00.155Z,14.77
2022-11-01T19:03:31.018Z,15.00
2022-11-01T19:06:14.716Z,16.10
2022-11-01T19:08:45.423Z,13.03
2022-11-01T19:11:14.257Z,10.87
2022-11-01T19:13:43.493Z,13.40
2022-11-01T19:16:13.835Z,17.43
2022-11-01T19:18:43.987Z,17.10
2022-11-01T19:21:19.099Z,14.03
2022-11-01T19:23:50.771Z,13.93
2022-11-01T19:26:26.928Z,15.97
2022-11-01T19:28:56.248Z,16.30
2022-11-01T19:31:31.174Z,19.30
2022-11-01T19:34:04.796Z,22.63
2022-11-01T19:39:26.465Z,21.43
2022-11-01T19:42:02.676Z,18.73
2022-11-01T19:44:32.556Z,23.40
2022-11-01T19:47:36.611Z,22.40
2022-11-01T19:50:18.935Z,20.03
2022-11-01T19:52:51.513Z,21.17
2022-11-01T19:55:51.039Z,20.37
2022-11-01T19:58:38.812Z,26.03
2022-11-01T20:01:41.931Z,27.40
2022-11-01T20:04:28.230Z,19.67
2022-11-01T20:07:01.414Z,23.63
2022-11-01T20:09:36.168Z,20.53
2022-11-01T20:12:08.525Z,22.47
2022-11-01T20:14:37.612Z,19.93
2022-11-01T20:17:06.950Z,22.30
2022-11-01T20:19:35.903Z,16.63
2022-11-01T20:22:04.838Z,19.53
2022-11-01T20:24:35.074Z,26.63
2022-11-01T20:27:03.887Z,23.00
2022-11-01T20:29:32.844Z,22.17
2022-11-01T20:32:01.711Z,28.03
2022-11-01T20:34:30.542Z,29.63
2022-11-01T20:37:26.889Z,20.13
2022-11-01T20:39:49.682Z,18.20
2022-11-01T20:42:18.519Z,20.77
2022-11-01T20:44:47.316Z,25.60
2022-11-01T20:47:16.088Z,20.77
2022-11-01T20:49:44.975Z,22.67
2022-11-01T20:52:37.945Z,19.70
2022-11-01T20:55:04.524Z,25.80
2022-11-01T20:57:33.440Z,20.10
2022-11-01T21:00:02.355Z,26.27
2022-11-01T21:02:31.250Z,24.83
2022-11-01T21:05:06.261Z,28.90
2022-11-01T21:07:35.849Z,23.40
2022-11-01T21:10:30.665Z,23.30
2022-11-01T21:13:01.805Z,21.27
2022-11-01T21:15:37.794Z,26.80
2022-11-01T21:18:34.726Z,22.53
2022-11-01T21:21:42.412Z,17.20
2022-11-01T21:24:36.934Z,16.03
2022-11-01T21:27:34.777Z,20.43
2022-11-01T21:30:19.952Z,23.27
2022-11-01T21:32:49.389Z,14.97
2022-11-01T21:35:41.340Z,21.13
2022-11-01T21:38:47.878Z,16.63
2022-11-01T21:41:28.459Z,17.53
2022-11-01T21:43:59.374Z,19.17
2022-11-01T21:46:36.283Z,22.03
2022-11-01T21:49:25.789Z,19.83
2022-11-01T21:51:56.529Z,20.20
2022-11-01T21:54:25.754Z,18.00
2022-11-01T21:56:54.862Z,18.90
2022-11-01T21:59:25.453Z,21.03
2022-11-01T22:01:55.436Z,20.90
2022-11-01T22:04:28.730Z,24.83
2022-11-01T22:06:58.672Z,17.83
2022-11-01T22:09:28.021Z,20.00
2022-11-01T22:11:57.116Z,19.87
2022-11-01T22:14:27.463Z,17.17
2022-11-01T22:16:56.923Z,16.83
2022-11-01T22:19:25.913Z,16.83
2022-11-01T22:21:54.772Z,21.80
2022-11-01T22:24:24.500Z,17.23
2022-11-01T22:26:53.259Z,18.10
2022-11-01T22:29:22.023Z,14.40
2022-11-01T22:31:52.225Z,23.57
2022-11-01T22:34:21.331Z,17.50
2022-11-01T22:36:50.610Z,15.97
2022-11-01T22:39:22.416Z,12.97
2022-11-01T22:41:51.460Z,19.07
2022-11-01T22:44:26.434Z,24.73
2022-11-01T22:47:00.045Z,13.27
2022-11-01T22:49:36.473Z,21.83
2022-11-01T22:52:20.900Z,11.73
2022-11-01T22:54:53.128Z,13.53
2022-11-01T22:57:25.412Z,14.63
2022-11-01T22:59:57.031Z,13.23
2022-11-01T23:02:31.821Z,11.00
2022-11-01T23:05:26.264Z,13.07
2022-11-01T23:07:57.432Z,13.23
2022-11-01T23:10:30.855Z,16.97
2022-11-01T23:13:34.151Z,12.20
2022-11-01T23:16:12.773Z,12.20
2022-11-01T23:18:45.233Z,19.07
2022-11-01T23:21:14.125Z,13.37
2022-11-01T23:23:46.291Z,14.00
2022-11-01T23:26:17.321Z,14.10
2022-11-01T23:28:50.134Z,12.33
2022-11-01T23:31:19.624Z,10.43
2022-11-01T23:33:51.795Z,19.87
2022-11-01T23:36:26.170Z,12.00
2022-11-01T23:41:37.400Z,11.73
2022-11-01T23:44:23.657Z,10.53
2022-11-01T23:46:54.195Z,13.07
2022-11-01T23:49:28.082Z,15.67
2022-11-01T23:51:57.625Z,16.57
2022-11-01T23:54:39.936Z,13.53
2022-11-01T23:57:14.755Z,12.60
2022-11-01T23:59:43.765Z,12.87
